Time;durP1;ratioP1;P1;durP2;ratioP2;P2;SDS_P1;SDS_P2;PMS_P1;PMS_P2;Temp;Humidity;BMP_temperature;BMP_pressure;BME280_temperature;BME280_humidity;BME280_pressure;Samples;Min_cycle;Max_cycle;Signal;HPM_P1;HPM_P2
2021/08/01 00:01:03;;;;;;;8.13;5.53;;;14.50;99.90;;;;;;4968822;28;20031;-64
2021/08/01 00:03:30;;;;;;;8.43;6.35;;;14.50;99.90;;;;;;4971757;28;20015;-63
2021/08/01 00:05:56;;;;;;;7.10;5.78;;;14.50;99.90;;;;;;4972142;28;20031;-63
2021/08/01 00:08:23;;;;;;;8.68;5.40;;;14.50;99.90;;;;;;4971074;28;20198;-62
2021/08/01 00:10:50;;;;;;;8.10;5.45;;;14.50;99.90;;;;;;4971193;28;20497;-63
2021/08/01 00:13:15;;;;;;;10.05;5.22;;;14.40;99.90;;;;;;4970854;28;20034;-63
2021/08/01 00:15:41;;;;;;;6.38;4.35;;;14.50;99.90;;;;;;4971645;28;20064;-62
2021/08/01 00:18:06;;;;;;;5.65;3.42;;;14.40;99.90;;;;;;4969276;28;20035;-64
2021/08/01 00:20:32;;;;;;;8.25;4.00;;;14.40;99.90;;;;;;4971605;28;20025;-63
2021/08/01 00:22:58;;;;;;;20.80;6.18;;;14.40;99.90;;;;;;4970252;28;20118;-63
2021/08/01 00:25:24;;;;;;;7.47;4.40;;;14.30;99.90;;;;;;4971229;28;20551;-63
2021/08/01 00:27:49;;;;;;;6.55;4.95;;;14.30;99.90;;;;;;4970763;28;20126;-57
2021/08/01 00:30:15;;;;;;;13.85;5.50;;;14.30;99.90;;;;;;4971458;28;20138;-63
2021/08/01 00:32:43;;;;;;;8.13;5.53;;;14.20;99.90;;;;;;4969313;28;20084;-63
2021/08/01 00:35:09;;;;;;;8.07;5.15;;;14.20;99.90;;;;;;4971026;28;20035;-63
2021/08/01 00:37:35;;;;;;;8.50;5.60;;;14.20;99.90;;;;;;4970658;28;20034;-63
2021/08/01 00:40:01;;;;;;;13.30;5.60;;;14.20;99.90;;;;;;4927029;28;20046;-62
2021/08/01 00:42:26;;;;;;;12.20;4.93;;;14.20;99.90;;;;;;4963421;28;20039;-63
2021/08/01 00:44:52;;;;;;;6.90;5.05;;;14.30;99.90;;;;;;4972471;28;20035;-63
2021/08/01 00:47:18;;;;;;;9.73;5.88;;;14.40;99.90;;;;;;4972221;28;20062;-62
2021/08/01 00:49:44;;;;;;;10.45;5.65;;;14.40;99.90;;;;;;4972191;28;20019;-63
2021/08/01 00:52:11;;;;;;;11.60;5.22;;;14.50;99.90;;;;;;4971703;28;20023;-62
2021/08/01 00:54:37;;;;;;;7.82;5.00;;;14.60;99.90;;;;;;4972507;28;20034;-64
2021/08/01 00:57:04;;;;;;;9.45;5.25;;;14.70;99.90;;;;;;4972153;28;20027;-64
2021/08/01 00:59:39;;;;;;;6.50;4.28;;;14.80;99.90;;;;;;4973258;28;20117;-63
2021/08/01 01:02:15;;;;;;;8.25;4.20;;;14.80;99.90;;;;;;4965711;28;20045;-63
2021/08/01 01:04:59;;;;;;;8.68;4.10;;;14.80;99.90;;;;;;4972611;28;20074;-61
2021/08/01 01:07:53;;;;;;;8.65;4.40;;;14.80;99.90;;;;;;4970007;28;20030;-63
2021/08/01 01:10:29;;;;;;;10.35;5.05;;;14.90;99.90;;;;;;4968437;28;20034;-62
2021/08/01 01:13:04;;;;;;;10.15;5.13;;;14.90;99.90;;;;;;4971114;28;20089;-61
2021/08/01 01:15:35;;;;;;;8.57;5.28;;;14.90;99.90;;;;;;4964682;28;20034;-63
2021/08/01 01:18:03;;;;;;;6.10;4.80;;;14.90;99.90;;;;;;4968185;28;20548;-63
2021/08/01 01:20:39;;;;;;;7.07;4.85;;;15.00;99.90;;;;;;4968939;28;20026;-61
2021/08/01 01:23:34;;;;;;;5.85;5.22;;;14.90;99.90;;;;;;4969560;28;20026;-62
2021/08/01 01:26:07;;;;;;;5.90;4.75;;;14.90;99.90;;;;;;4969119;28;20023;-63
2021/08/01 01:28:40;;;;;;;8.30;4.38;;;14.90;99.90;;;;;;4969269;28;20038;-63
2021/08/01 01:31:36;;;;;;;7.32;4.82;;;14.90;99.90;;;;;;4966544;28;20034;-64
2021/08/01 01:34:16;;;;;;;6.38;5.15;;;14.90;99.90;;;;;;4969895;28;20062;-63
2021/08/01 01:36:44;;;;;;;8.38;5.85;;;14.90;99.90;;;;;;4970108;28;20086;-63
2021/08/01 01:39:10;;;;;;;10.98;5.15;;;14.90;99.90;;;;;;4971091;28;20061;-61
2021/08/01 01:41:38;;;;;;;6.72;5.28;;;14.90;99.90;;;;;;4970222;28;20031;-64
2021/08/01 01:44:05;;;;;;;8.23;5.45;;;15.00;99.90;;;;;;4970484;28;20034;-63
2021/08/01 01:46:31;;;;;;;7.90;4.78;;;14.90;99.90;;;;;;4958128;28;20027;-64
2021/08/01 01:48:58;;;;;;;9.07;5.28;;;15.00;99.90;;;;;;4969975;28;20027;-63
2021/08/01 01:51:23;;;;;;;7.28;5.35;;;15.00;99.90;;;;;;4970271;28;20053;-62
2021/08/01 01:53:50;;;;;;;7.25;4.70;;;15.00;99.90;;;;;;4970644;28;20031;-62
2021/08/01 01:56:17;;;;;;;8.38;5.10;;;15.10;99.90;;;;;;4970517;28;20485;-61
2021/08/01 01:58:42;;;;;;;10.75;5.63;;;15.10;99.90;;;;;;4970058;28;20023;-63
2021/08/01 02:01:08;;;;;;;12.43;5.20;;;15.10;99.90;;;;;;4970662;28;20042;-63
2021/08/01 02:03:34;;;;;;;10.23;5.90;;;15.20;99.90;;;;;;4968567;28;20042;-64
2021/08/01 02:06:00;;;;;;;6.47;4.95;;;15.20;99.90;;;;;;4970767;28;20039;-62
2021/08/01 02:08:33;;;;;;;11.15;5.22;;;15.20;99.90;;;;;;4969234;28;20034;-63
2021/08/01 02:10:59;;;;;;;15.40;6.00;;;15.20;99.90;;;;;;4967505;28;20031;-63
2021/08/01 02:13:35;;;;;;;10.13;5.82;;;15.20;99.90;;;;;;4969597;28;20043;-64
2021/08/01 02:16:02;;;;;;;6.18;4.95;;;15.20;99.90;;;;;;4970773;28;20073;-64
2021/08/01 02:18:36;;;;;;;6.32;4.43;;;15.40;99.90;;;;;;4969190;28;20114;-62
2021/08/01 02:21:02;;;;;;;9.65;4.30;;;15.40;99.90;;;;;;4970730;28;20035;-63
2021/08/01 02:23:48;;;;;;;11.68;5.05;;;15.30;99.90;;;;;;4970063;28;20046;-62
2021/08/01 02:26:19;;;;;;;9.27;5.00;;;15.30;99.90;;;;;;4966856;28;20407;-63
2021/08/01 02:28:45;;;;;;;7.90;5.07;;;15.10;99.90;;;;;;4971701;28;20069;-63
2021/08/01 02:31:12;;;;;;;6.55;5.28;;;15.10;99.90;;;;;;4969662;28;20134;-61
2021/08/01 02:33:38;;;;;;;8.73;4.97;;;15.10;99.90;;;;;;4969681;28;20023;-63
2021/08/01 02:36:07;;;;;;;10.02;5.03;;;15.10;99.90;;;;;;4971285;28;20030;-63
2021/08/01 02:38:33;;;;;;;13.85;6.18;;;15.10;99.90;;;;;;4966384;28;20614;-63
2021/08/01 02:41:04;;;;;;;9.63;5.75;;;15.10;99.90;;;;;;4966972;28;20493;-63
2021/08/01 02:43:32;;;;;;;16.00;7.38;;;15.20;99.90;;;;;;4964935;28;20035;-63
2021/08/01 02:45:59;;;;;;;10.45;5.07;;;15.20;99.90;;;;;;4970948;28;20094;-64
2021/08/01 02:48:28;;;;;;;6.28;4.82;;;15.20;99.90;;;;;;4969318;28;20027;-64
2021/08/01 02:50:59;;;;;;;6.50;4.45;;;15.20;99.90;;;;;;4980108;28;20074;-63
2021/08/01 02:53:27;;;;;;;6.93;4.80;;;15.30;99.90;;;;;;4968258;28;20031;-63
2021/08/01 02:55:57;;;;;;;7.10;4.68;;;15.20;99.90;;;;;;4973144;28;20129;-63
2021/08/01 02:58:26;;;;;;;6.30;4.30;;;15.20;99.90;;;;;;4964632;28;20023;-63
2021/08/01 03:00:53;;;;;;;10.82;6.60;;;15.10;99.90;;;;;;4977308;28;20571;-63
2021/08/01 03:03:20;;;;;;;6.60;5.50;;;15.10;99.90;;;;;;4967212;28;20078;-63
2021/08/01 03:05:46;;;;;;;7.07;4.82;;;15.10;99.90;;;;;;4970574;28;20031;-63
2021/08/01 03:08:13;;;;;;;5.72;4.60;;;15.20;99.90;;;;;;4969556;28;20026;-62
2021/08/01 03:10:51;;;;;;;7.28;5.03;;;15.10;99.90;;;;;;4965983;28;20413;-64
2021/08/01 03:13:17;;;;;;;6.47;5.38;;;15.10;99.90;;;;;;4969921;28;20042;-63
2021/08/01 03:15:43;;;;;;;7.97;5.78;;;15.10;99.90;;;;;;4974581;28;20019;-63
2021/08/01 03:18:09;;;;;;;8.98;6.82;;;15.00;99.90;;;;;;4968512;28;20153;-64
2021/08/01 03:20:35;;;;;;;16.08;7.40;;;15.00;99.90;;;;;;4971728;28;20040;-64
2021/08/01 03:23:00;;;;;;;17.55;7.90;;;15.00;99.90;;;;;;4975970;28;20038;-63
2021/08/01 03:25:26;;;;;;;17.13;8.05;;;15.00;99.90;;;;;;4973324;28;20497;-63
2021/08/01 03:27:51;;;;;;;15.55;9.50;;;15.00;99.90;;;;;;4972765;28;20031;-64
2021/08/01 03:30:17;;;;;;;15.38;8.75;;;15.00;99.90;;;;;;4973629;28;20041;-63
2021/08/01 03:32:43;;;;;;;14.95;9.77;;;15.00;99.90;;;;;;4971479;28;20050;-64
2021/08/01 03:35:08;;;;;;;13.95;9.30;;;15.00;99.90;;;;;;4971713;28;20041;-64
2021/08/01 03:37:35;;;;;;;19.15;10.45;;;15.00;99.90;;;;;;4972709;28;20027;-61
2021/08/01 03:40:00;;;;;;;14.48;10.23;;;15.00;99.90;;;;;;4972982;28;20035;-63
2021/08/01 03:42:26;;;;;;;19.73;10.20;;;15.00;99.90;;;;;;4972258;28;20065;-64
2021/08/01 03:44:52;;;;;;;12.55;8.98;;;15.00;99.90;;;;;;4969933;28;20428;-61
2021/08/01 03:47:17;;;;;;;12.15;7.75;;;14.90;99.90;;;;;;4973816;28;20035;-63
2021/08/01 03:49:43;;;;;;;15.32;7.75;;;14.90;99.90;;;;;;4972264;28;20039;-63
2021/08/01 03:52:10;;;;;;;15.02;7.50;;;14.90;99.90;;;;;;4971603;28;20027;-64
2021/08/01 03:54:36;;;;;;;10.75;8.77;;;14.80;99.90;;;;;;4971634;28;20061;-64
2021/08/01 03:57:01;;;;;;;13.48;8.10;;;14.80;99.90;;;;;;4971792;28;20058;-64
2021/08/01 03:59:27;;;;;;;14.50;9.38;;;14.80;99.90;;;;;;4970496;28;20640;-63
2021/08/01 04:01:53;;;;;;;12.00;9.30;;;14.80;99.90;;;;;;4972297;28;20493;-64
2021/08/01 04:04:18;;;;;;;15.73;9.63;;;14.80;99.90;;;;;;4956596;28;20043;-64
2021/08/01 04:06:44;;;;;;;14.48;9.90;;;14.80;99.90;;;;;;4970745;28;20106;-63
2021/08/01 04:09:09;;;;;;;14.90;10.43;;;14.80;99.90;;;;;;4966788;28;20401;-64
2021/08/01 04:11:37;;;;;;;16.05;9.82;;;14.80;99.90;;;;;;4974982;28;20600;-64
2021/08/01 04:14:03;;;;;;;11.15;9.07;;;14.80;99.90;;;;;;4966643;28;20445;-64
2021/08/01 04:16:29;;;;;;;14.73;8.93;;;14.90;99.90;;;;;;4971329;28;20042;-64
2021/08/01 04:18:55;;;;;;;15.15;9.80;;;14.90;99.90;;;;;;4970847;28;20058;-63
2021/08/01 04:21:20;;;;;;;15.85;8.65;;;14.90;99.90;;;;;;4970709;28;20062;-62
2021/08/01 04:23:46;;;;;;;11.57;8.43;;;14.90;99.90;;;;;;4971006;28;20131;-64
2021/08/01 04:26:12;;;;;;;16.92;9.02;;;14.90;99.90;;;;;;4970629;28;20369;-63
2021/08/01 04:28:38;;;;;;;12.70;8.90;;;14.90;99.90;;;;;;4971105;28;20114;-64
2021/08/01 04:31:04;;;;;;;10.48;7.88;;;14.90;99.90;;;;;;4969815;28;20114;-63
2021/08/01 04:33:29;;;;;;;13.00;8.05;;;14.90;99.90;;;;;;4968274;28;20408;-64
2021/08/01 04:35:55;;;;;;;13.27;9.23;;;14.90;99.90;;;;;;4971040;28;20038;-62
2021/08/01 04:38:20;;;;;;;15.07;8.15;;;14.80;99.90;;;;;;4969769;28;20429;-64
2021/08/01 04:40:46;;;;;;;17.45;7.88;;;14.80;99.90;;;;;;4970942;28;20041;-63
2021/08/01 04:43:12;;;;;;;15.57;8.63;;;14.80;99.90;;;;;;4973729;28;20034;-63
2021/08/01 04:45:38;;;;;;;11.32;8.38;;;14.80;99.90;;;;;;4971344;28;20031;-63
2021/08/01 04:48:05;;;;;;;11.80;7.40;;;14.80;99.90;;;;;;4970259;28;20065;-63
2021/08/01 04:50:31;;;;;;;10.98;8.18;;;14.80;99.90;;;;;;4970465;28;20074;-62
2021/08/01 04:52:56;;;;;;;12.63;7.90;;;14.90;99.90;;;;;;4971481;28;20027;-63
2021/08/01 04:55:22;;;;;;;12.73;8.55;;;14.90;99.90;;;;;;4969829;28;20409;-63
2021/08/01 04:57:48;;;;;;;13.13;8.02;;;15.00;99.90;;;;;;4971067;28;20118;-63
2021/08/01 05:00:14;;;;;;;11.73;7.65;;;15.00;99.90;;;;;;4970143;28;20054;-63
2021/08/01 05:02:40;;;;;;;12.60;8.63;;;15.10;99.90;;;;;;4954982;28;20026;-63
2021/08/01 05:05:06;;;;;;;12.95;7.97;;;15.20;99.90;;;;;;4970647;28;20519;-64
2021/08/01 05:07:32;;;;;;;10.77;7.60;;;15.20;99.90;;;;;;4970597;28;20046;-64
2021/08/01 05:09:59;;;;;;;17.73;8.15;;;15.20;99.90;;;;;;4970082;28;20109;-63
2021/08/01 05:12:25;;;;;;;10.88;7.88;;;15.20;99.90;;;;;;4965784;28;20085;-64
2021/08/01 05:14:51;;;;;;;16.67;8.82;;;15.30;99.90;;;;;;4971630;28;20031;-63
2021/08/01 05:17:16;;;;;;;14.60;8.23;;;15.30;99.90;;;;;;4966664;28;20396;-64
2021/08/01 05:19:42;;;;;;;12.10;8.15;;;15.40;99.90;;;;;;4969129;28;20031;-63
2021/08/01 05:22:12;;;;;;;12.63;8.35;;;15.30;99.90;;;;;;4971282;28;20109;-63
2021/08/01 05:24:39;;;;;;;15.70;9.75;;;15.50;99.90;;;;;;4985192;28;20033;-63
2021/08/01 05:27:05;;;;;;;15.27;10.10;;;15.50;99.90;;;;;;4968543;28;20381;-64
2021/08/01 05:29:31;;;;;;;13.85;8.63;;;15.50;99.90;;;;;;4969795;28;20109;-63
2021/08/01 05:31:57;;;;;;;15.82;9.52;;;15.50;99.90;;;;;;4970043;28;20592;-63
2021/08/01 05:34:23;;;;;;;12.90;10.00;;;15.50;99.90;;;;;;4970234;28;20120;-64
2021/08/01 05:36:49;;;;;;;13.23;9.45;;;15.50;99.90;;;;;;4971374;28;20122;-61
2021/08/01 05:39:14;;;;;;;18.13;10.35;;;15.60;99.90;;;;;;4968017;28;20406;-64
2021/08/01 05:41:40;;;;;;;14.95;9.73;;;15.60;99.90;;;;;;4968779;28;20025;-63
2021/08/01 05:44:05;;;;;;;16.70;9.68;;;15.70;99.90;;;;;;4970823;28;20027;-63
2021/08/01 05:46:31;;;;;;;16.85;10.05;;;15.80;99.90;;;;;;4961619;28;20555;-63
2021/08/01 05:48:57;;;;;;;14.20;9.13;;;15.80;99.90;;;;;;4973168;28;20078;-62
2021/08/01 05:51:23;;;;;;;13.27;9.85;;;15.80;99.90;;;;;;4969597;28;20038;-64
2021/08/01 05:53:48;;;;;;;15.98;10.10;;;15.80;99.90;;;;;;4970192;28;20035;-64
2021/08/01 05:56:14;;;;;;;14.63;10.13;;;15.80;99.90;;;;;;4969494;28;20035;-65
2021/08/01 05:58:40;;;;;;;16.45;10.45;;;15.80;99.90;;;;;;4964774;28;20540;-63
2021/08/01 06:01:14;;;;;;;14.02;9.27;;;15.80;99.90;;;;;;4969959;28;20066;-63
2021/08/01 06:03:40;;;;;;;18.13;10.27;;;15.80;99.90;;;;;;4953979;28;20082;-63
2021/08/01 06:06:14;;;;;;;15.40;11.00;;;15.80;99.90;;;;;;4969414;28;20030;-63
2021/08/01 06:08:41;;;;;;;21.25;10.68;;;15.70;99.90;;;;;;4972155;28;20038;-64
2021/08/01 06:11:07;;;;;;;17.95;11.48;;;15.70;99.90;;;;;;4967597;28;20444;-65
2021/08/01 06:13:33;;;;;;;25.00;11.40;;;15.60;99.90;;;;;;4968636;28;20069;-63
2021/08/01 06:15:59;;;;;;;19.60;11.65;;;15.50;99.90;;;;;;4965196;28;20113;-63
2021/08/01 06:18:24;;;;;;;29.60;11.90;;;15.50;99.90;;;;;;4967350;28;20106;-64
2021/08/01 06:21:01;;;;;;;19.30;10.10;;;15.60;99.90;;;;;;4967655;28;20485;-63
2021/08/01 06:23:26;;;;;;;15.73;9.95;;;15.80;99.90;;;;;;4973659;28;20019;-64
2021/08/01 06:25:52;;;;;;;26.42;10.85;;;15.80;99.90;;;;;;4969065;28;20101;-64
2021/08/01 06:28:17;;;;;;;15.15;10.55;;;15.70;99.90;;;;;;4968793;28;20023;-64
2021/08/01 06:30:43;;;;;;;24.70;9.73;;;15.80;99.90;;;;;;4972312;28;20035;-64
2021/08/01 06:33:08;;;;;;;19.05;10.38;;;15.80;99.90;;;;;;4968578;28;20035;-64
2021/08/01 06:35:34;;;;;;;12.73;9.27;;;15.90;99.90;;;;;;4968847;28;20030;-65
2021/08/01 06:37:59;;;;;;;19.70;9.70;;;16.10;99.90;;;;;;4972304;28;20018;-64
2021/08/01 06:40:25;;;;;;;16.75;8.45;;;16.40;99.90;;;;;;4971741;28;20404;-63
2021/08/01 06:42:51;;;;;;;12.77;7.75;;;17.00;99.90;;;;;;4969137;28;20365;-63
2021/08/01 06:45:16;;;;;;;15.40;6.20;;;17.90;99.90;;;;;;4969873;28;20038;-63
2021/08/01 06:47:42;;;;;;;11.43;5.45;;;19.10;99.90;;;;;;4970491;28;20491;-64
2021/08/01 06:50:08;;;;;;;7.72;4.68;;;20.10;99.90;;;;;;4970840;28;20058;-65
2021/08/01 06:52:33;;;;;;;10.50;4.70;;;20.80;99.90;;;;;;4970397;28;20408;-65
2021/08/01 06:54:59;;;;;;;10.40;4.75;;;22.00;99.90;;;;;;4975648;28;20026;-63
2021/08/01 06:57:24;;;;;;;10.30;4.75;;;22.90;99.90;;;;;;4972767;28;20507;-65
2021/08/01 06:59:50;;;;;;;7.15;4.40;;;23.50;99.60;;;;;;4971573;28;20035;-64
2021/08/01 07:02:15;;;;;;;8.18;4.82;;;23.20;99.50;;;;;;4972865;28;20034;-65
2021/08/01 07:04:41;;;;;;;14.23;4.30;;;23.30;99.90;;;;;;4956956;28;20046;-64
2021/08/01 07:07:06;;;;;;;10.73;4.50;;;23.20;99.90;;;;;;4977252;28;20177;-63
2021/08/01 07:09:39;;;;;;;9.07;4.70;;;22.70;99.40;;;;;;4971655;28;20030;-64
2021/08/01 07:12:04;;;;;;;12.70;3.83;;;23.00;99.90;;;;;;4968720;28;20030;-64
2021/08/01 07:14:31;;;;;;;15.45;4.10;;;24.20;99.40;;;;;;4972910;28;20406;-66
2021/08/01 07:16:58;;;;;;;11.20;4.32;;;24.50;96.80;;;;;;4972415;28;20042;-60
2021/08/01 07:19:23;;;;;;;10.45;4.28;;;24.80;96.00;;;;;;4970885;28;20042;-64
2021/08/01 07:21:49;;;;;;;10.30;3.75;;;25.70;96.40;;;;;;4972637;28;20035;-64
2021/08/01 07:24:14;;;;;;;7.68;3.20;;;25.80;94.50;;;;;;4972232;28;20369;-65
2021/08/01 07:26:40;;;;;;;8.10;3.28;;;25.70;93.70;;;;;;4972150;28;20023;-64
2021/08/01 07:29:05;;;;;;;11.13;4.30;;;24.60;94.30;;;;;;4975626;28;20038;-64
2021/08/01 07:31:31;;;;;;;7.30;3.60;;;23.90;96.40;;;;;;4970914;28;20026;-65
2021/08/01 07:33:57;;;;;;;10.48;3.47;;;24.20;96.30;;;;;;4975278;28;20037;-64
2021/08/01 07:36:23;;;;;;;8.38;2.92;;;24.40;95.00;;;;;;4972119;28;20083;-64
2021/08/01 07:38:48;;;;;;;13.10;3.17;;;24.00;96.10;;;;;;4973883;28;20066;-65
2021/08/01 07:41:14;;;;;;;8.07;3.28;;;24.40;95.80;;;;;;4973210;28;20041;-64
2021/08/01 07:43:39;;;;;;;10.13;3.85;;;24.80;94.40;;;;;;4975054;28;20035;-66
2021/08/01 07:46:05;;;;;;;10.65;4.20;;;24.50;94.90;;;;;;4974563;28;20023;-64
2021/08/01 07:48:32;;;;;;;9.55;4.03;;;23.90;94.80;;;;;;4972338;28;20023;-65
2021/08/01 07:50:57;;;;;;;6.75;4.00;;;23.10;96.30;;;;;;4967681;28;20035;-66
2021/08/01 07:53:23;;;;;;;9.13;3.80;;;22.80;98.10;;;;;;4970537;28;20038;-64
2021/08/01 07:55:49;;;;;;;8.07;3.97;;;22.20;97.30;;;;;;4972033;28;20035;-65
2021/08/01 07:58:15;;;;;;;10.82;4.00;;;22.00;99.00;;;;;;4968546;28;20555;-63
2021/08/01 08:00:40;;;;;;;6.97;3.28;;;21.70;99.00;;;;;;4973515;28;20498;-64
2021/08/01 08:03:06;;;;;;;9.15;3.40;;;21.60;98.30;;;;;;4971001;28;20061;-64
2021/08/01 08:05:32;;;;;;;8.20;3.65;;;22.00;99.20;;;;;;4954833;28;20496;-64
2021/08/01 08:07:57;;;;;;;8.25;3.20;;;22.80;97.20;;;;;;4971589;28;20039;-64
2021/08/01 08:10:23;;;;;;;11.10;3.42;;;24.20;95.80;;;;;;4970620;28;20034;-65
2021/08/01 08:12:49;;;;;;;9.10;2.67;;;25.10;94.50;;;;;;4971791;28;20038;-64
2021/08/01 08:15:16;;;;;;;7.72;3.08;;;25.80;93.50;;;;;;4974936;28;20030;-64
2021/08/01 08:17:41;;;;;;;8.48;3.20;;;26.70;91.10;;;;;;4970511;28;20047;-64
2021/08/01 08:20:08;;;;;;;8.38;3.03;;;26.20;90.90;;;;;;4969748;28;20038;-64
2021/08/01 08:22:34;;;;;;;6.85;2.75;;;25.60;92.40;;;;;;4977910;28;20428;-64
2021/08/01 08:25:00;;;;;;;5.70;2.75;;;25.80;92.40;;;;;;4971097;28;20030;-65
2021/08/01 08:27:26;;;;;;;6.32;2.47;;;26.20;92.10;;;;;;4970780;28;20503;-64
2021/08/01 08:29:51;;;;;;;9.23;2.50;;;27.00;90.80;;;;;;4970934;28;20700;-65
2021/08/01 08:32:17;;;;;;;8.05;2.15;;;27.60;88.40;;;;;;4970278;28;20432;-65
2021/08/01 08:34:43;;;;;;;5.80;2.20;;;28.00;87.00;;;;;;4971193;28;20062;-65
2021/08/01 08:37:09;;;;;;;4.68;2.13;;;28.60;86.00;;;;;;4973092;28;20030;-65
2021/08/01 08:39:35;;;;;;;4.43;1.80;;;29.20;83.50;;;;;;4974087;28;20031;-65
2021/08/01 08:42:02;;;;;;;3.97;1.65;;;28.60;79.90;;;;;;4971969;28;20034;-66
2021/08/01 08:44:28;;;;;;;3.47;2.03;;;27.90;79.80;;;;;;4972122;28;20047;-63
2021/08/01 08:46:57;;;;;;;8.25;2.42;;;27.10;82.50;;;;;;4969957;28;20725;-64
2021/08/01 08:49:23;;;;;;;4.47;2.03;;;26.50;83.00;;;;;;4968724;28;20045;-65
2021/08/01 08:51:53;;;;;;;5.50;1.92;;;26.90;86.80;;;;;;4968449;28;20027;-64
2021/08/01 08:54:35;;;;;;;4.88;2.17;;;25.70;84.30;;;;;;4973618;28;20054;-65
2021/08/01 08:57:06;;;;;;;5.18;1.90;;;25.70;88.10;;;;;;4971212;28;20043;-64
2021/08/01 08:59:32;;;;;;;3.72;1.60;;;26.50;87.70;;;;;;4970496;28;20683;-64
2021/08/01 09:01:58;;;;;;;4.53;1.88;;;27.60;84.70;;;;;;4975128;28;20023;-65
2021/08/01 09:04:23;;;;;;;6.03;2.40;;;27.60;82.50;;;;;;4969916;28;20050;-64
2021/08/01 09:06:49;;;;;;;5.18;2.28;;;27.20;84.50;;;;;;4953908;28;20077;-65
2021/08/01 09:09:15;;;;;;;3.08;1.95;;;26.50;82.60;;;;;;4970109;28;20033;-65
2021/08/01 09:11:41;;;;;;;5.22;2.40;;;27.00;84.60;;;;;;4968783;28;20113;-64
2021/08/01 09:14:18;;;;;;;3.85;2.00;;;25.70;85.00;;;;;;4970933;28;20177;-66
2021/08/01 09:16:48;;;;;;;4.97;2.25;;;24.80;86.50;;;;;;4973271;28;20065;-64
2021/08/01 09:19:37;;;;;;;5.43;2.35;;;24.30;87.90;;;;;;4969878;28;20046;-64
2021/08/01 09:22:10;;;;;;;5.97;2.50;;;23.80;90.00;;;;;;4971793;28;20069;-65
2021/08/01 09:24:36;;;;;;;6.53;2.00;;;23.50;90.80;;;;;;4968579;28;20553;-65
2021/08/01 09:27:03;;;;;;;5.93;2.08;;;23.70;91.20;;;;;;4969418;28;20179;-64
2021/08/01 09:29:30;;;;;;;5.43;1.95;;;23.50;91.70;;;;;;4968115;28;20168;-64
2021/08/01 09:31:58;;;;;;;6.38;2.20;;;22.90;91.30;;;;;;4971888;28;20034;-65
2021/08/01 09:34:26;;;;;;;3.95;1.70;;;22.60;90.90;;;;;;4968107;28;20496;-64
2021/08/01 09:37:03;;;;;;;3.53;2.10;;;22.80;93.00;;;;;;4969105;28;20084;-65
2021/08/01 09:39:37;;;;;;;6.78;2.55;;;23.50;90.50;;;;;;4966056;28;20031;-65
2021/08/01 09:42:03;;;;;;;4.00;1.98;;;24.50;88.20;;;;;;4968610;28;20508;-64
2021/08/01 09:44:29;;;;;;;4.60;1.80;;;24.50;88.10;;;;;;4970172;28;20022;-64
2021/08/01 09:46:58;;;;;;;4.15;1.73;;;24.60;89.30;;;;;;4969570;28;20027;-64
2021/08/01 09:49:26;;;;;;;5.80;1.95;;;24.00;90.10;;;;;;4967383;28;20026;-62
2021/08/01 09:51:54;;;;;;;3.83;1.50;;;23.70;90.40;;;;;;4967319;28;20039;-64
2021/08/01 09:54:21;;;;;;;4.97;1.38;;;23.40;91.10;;;;;;4969838;28;20076;-64
2021/08/01 09:57:05;;;;;;;2.83;1.38;;;23.40;91.60;;;;;;4969910;28;20046;-64
2021/08/01 09:59:32;;;;;;;4.45;1.50;;;24.00;89.60;;;;;;4967995;28;20030;-64
2021/08/01 10:02:00;;;;;;;5.28;1.90;;;24.70;86.80;;;;;;4971122;28;20496;-63
2021/08/01 10:04:42;;;;;;;2.35;1.02;;;25.00;86.50;;;;;;4969924;28;20033;-65
2021/08/01 10:07:07;;;;;;;4.82;1.73;;;24.70;85.20;;;;;;4968854;28;20082;-64
2021/08/01 10:09:35;;;;;;;4.43;1.45;;;24.40;84.80;;;;;;4969841;28;20031;-65
2021/08/01 10:12:01;;;;;;;3.00;1.30;;;24.20;86.00;;;;;;4970201;28;20477;-64
2021/08/01 10:14:28;;;;;;;3.50;1.60;;;23.60;85.60;;;;;;4970577;28;20062;-64
2021/08/01 10:16:55;;;;;;;2.97;1.45;;;23.30;90.10;;;;;;4969712;28;20030;-64
2021/08/01 10:19:20;;;;;;;5.45;1.80;;;23.30;90.60;;;;;;4969457;28;20433;-63
2021/08/01 10:21:50;;;;;;;4.10;1.50;;;23.30;89.40;;;;;;4969853;28;20057;-64
2021/08/01 10:24:24;;;;;;;4.75;1.70;;;23.30;91.00;;;;;;4970000;28;20046;-64
2021/08/01 10:26:53;;;;;;;4.03;1.38;;;23.70;89.40;;;;;;4965007;28;20208;-64
2021/08/01 10:29:32;;;;;;;4.80;1.92;;;24.60;89.30;;;;;;4972457;28;20034;-64
2021/08/01 10:32:01;;;;;;;2.80;1.38;;;24.10;88.30;;;;;;4972196;28;20088;-64
2021/08/01 10:34:35;;;;;;;10.80;1.83;;;23.80;88.60;;;;;;4971691;28;20034;-64
2021/08/01 10:37:03;;;;;;;2.83;1.40;;;24.00;87.60;;;;;;4972624;28;20114;-64
2021/08/01 10:39:31;;;;;;;3.40;1.20;;;24.70;86.60;;;;;;4972792;28;20500;-64
2021/08/01 10:42:01;;;;;;;3.25;1.52;;;25.20;86.70;;;;;;4973765;28;20049;-64
2021/08/01 10:44:27;;;;;;;2.75;1.40;;;25.50;88.90;;;;;;4974006;28;20030;-64
2021/08/01 10:46:53;;;;;;;3.35;1.40;;;25.80;86.30;;;;;;4973409;28;20027;-65
2021/08/01 10:49:19;;;;;;;3.35;1.60;;;25.30;86.50;;;;;;4973295;28;20507;-65
2021/08/01 10:51:45;;;;;;;4.10;1.35;;;24.80;87.70;;;;;;4973693;28;20076;-64
2021/08/01 10:54:31;;;;;;;3.38;1.50;;;24.40;89.10;;;;;;4973611;28;20472;-64
2021/08/01 10:57:15;;;;;;;4.72;1.85;;;24.40;87.10;;;;;;4967709;28;20485;-63
2021/08/01 10:59:43;;;;;;;4.07;1.85;;;23.80;88.80;;;;;;4973185;28;20038;-64
2021/08/01 11:02:23;;;;;;;5.30;1.50;;;23.40;89.80;;;;;;4973047;28;20483;-57
2021/08/01 11:04:52;;;;;;;3.42;1.50;;;23.10;90.20;;;;;;4970478;28;20061;-63
2021/08/01 11:07:27;;;;;;;4.82;1.48;;;23.20;90.20;;;;;;4957346;28;20077;-65
2021/08/01 11:10:08;;;;;;;3.25;1.40;;;23.40;90.80;;;;;;4972721;28;20356;-64
2021/08/01 11:12:44;;;;;;;6.15;1.48;;;23.90;91.00;;;;;;4973610;28;20057;-63
2021/08/01 11:15:11;;;;;;;3.05;1.48;;;23.90;88.60;;;;;;4974877;28;20121;-64
2021/08/01 11:17:43;;;;;;;3.67;1.40;;;23.80;88.40;;;;;;4972521;28;20022;-64
2021/08/01 11:20:15;;;;;;;4.03;2.33;;;23.30;90.00;;;;;;4972722;28;20089;-64
2021/08/01 11:22:41;;;;;;;2.90;1.45;;;23.50;90.00;;;;;;4973407;28;20031;-64
2021/08/01 11:25:36;;;;;;;6.07;2.20;;;23.70;90.80;;;;;;4974195;28;20025;-63
2021/08/01 11:28:14;;;;;;;2.38;1.52;;;23.90;89.70;;;;;;4968188;28;20038;-64
2021/08/01 11:30:51;;;;;;;2.83;1.50;;;23.40;88.80;;;;;;4974868;28;20026;-65
2021/08/01 11:33:43;;;;;;;4.35;1.90;;;23.20;90.30;;;;;;4971970;28;20031;-63
2021/08/01 11:36:11;;;;;;;6.10;1.85;;;23.10;89.30;;;;;;4975390;28;20033;-64
2021/08/01 11:38:59;;;;;;;4.15;1.90;;;23.00;89.40;;;;;;4971398;28;20033;-64
2021/08/01 11:41:27;;;;;;;2.97;1.70;;;23.30;89.40;;;;;;4969809;28;20117;-63
2021/08/01 11:43:59;;;;;;;7.40;2.17;;;23.80;89.30;;;;;;4974862;28;20042;-63
2021/08/01 11:46:26;;;;;;;4.95;2.33;;;23.90;90.10;;;;;;4975643;28;20026;-64
2021/08/01 11:49:05;;;;;;;3.05;1.65;;;23.70;84.70;;;;;;4972769;28;20034;-64
2021/08/01 11:51:32;;;;;;;4.78;1.65;;;23.70;87.50;;;;;;4972103;28;20034;-65
2021/08/01 11:53:58;;;;;;;4.30;2.83;;;23.70;86.50;;;;;;4972862;28;20519;-64
2021/08/01 11:56:25;;;;;;;8.40;2.00;;;23.90;87.10;;;;;;4972795;28;20062;-64
2021/08/01 11:58:54;;;;;;;3.33;2.03;;;23.70;89.20;;;;;;4972276;28;20415;-64
2021/08/01 12:01:21;;;;;;;3.08;1.80;;;23.30;88.90;;;;;;4969046;28;20058;-64
2021/08/01 12:03:50;;;;;;;9.38;2.35;;;22.80;90.60;;;;;;4969020;28;20148;-63
2021/08/01 12:06:39;;;;;;;3.90;1.95;;;23.30;91.00;;;;;;4957535;28;20542;-65
2021/08/01 12:09:28;;;;;;;7.72;2.22;;;23.80;89.30;;;;;;4972257;28;20041;-63
2021/08/01 12:11:58;;;;;;;4.80;1.90;;;23.90;89.40;;;;;;4971129;28;20038;-65
2021/08/01 12:14:28;;;;;;;5.78;1.95;;;24.00;87.60;;;;;;4975160;28;20102;-64
2021/08/01 12:16:59;;;;;;;5.25;2.17;;;23.40;87.80;;;;;;4968218;28;20045;-65
2021/08/01 12:19:46;;;;;;;5.38;2.00;;;23.50;90.20;;;;;;4965865;28;20040;-64
2021/08/01 12:22:19;;;;;;;7.22;2.03;;;23.70;90.10;;;;;;4971437;28;20496;-65
2021/08/01 12:24:59;;;;;;;4.40;2.03;;;23.60;90.40;;;;;;4972159;28;20477;-64
2021/08/01 12:27:30;;;;;;;6.50;1.80;;;23.40;89.70;;;;;;4969163;28;20035;-64
2021/08/01 12:30:07;;;;;;;5.90;2.10;;;23.80;90.10;;;;;;4971358;28;20031;-64
2021/08/01 12:32:34;;;;;;;6.65;1.88;;;23.60;87.80;;;;;;4975584;28;20045;-64
2021/08/01 12:35:06;;;;;;;2.25;1.42;;;23.70;87.90;;;;;;4972127;28;20089;-64
2021/08/01 12:37:40;;;;;;;3.30;1.45;;;24.00;88.00;;;;;;4969933;28;20118;-65
2021/08/01 12:40:07;;;;;;;4.68;1.80;;;24.30;86.40;;;;;;4971937;28;20045;-64
2021/08/01 12:42:33;;;;;;;9.43;2.10;;;24.40;86.70;;;;;;4971415;28;20083;-65
2021/08/01 12:45:01;;;;;;;4.32;2.20;;;24.00;87.40;;;;;;4975075;28;20512;-63
2021/08/01 12:47:30;;;;;;;4.13;1.70;;;23.90;89.40;;;;;;4970036;28;20022;-64
2021/08/01 12:50:01;;;;;;;8.07;2.35;;;24.00;86.20;;;;;;4971863;28;20031;-64